PWSweather.com
Personal Weather Stations
Station Observations
KCOBOOMER
Belmont, Pueblo, CO 81001

BelmontPueblo, CO 81001

Lat: 38.2977486, Lon: -104.5754318

Elevation: 4795

Station Type: Davis Vantage Pro 2

http://www.puebloweather.net

Latest ConditionsUpdated 8:45:05 PM MDT Saturday, Jun 25, 2016
Currently Today's Max Today's Min Today's Average
Temperature 70.1°F21.2°C 95.7°F35.4°C 61.9°F16.6°C 76.1°F24.5°C
Dew Point 55.6°F13.1°C 58.9°F14.9°C 44.7°F7.1°C 53.6°F12.0°C
Winds 12.0 mph WNW19.3 kmh WNW 38.0 mph NW61.2 kmh NW - 7.9 mph 12.7 kmh
Wind Gusts 16.0 mph25.7 kmh 67.0 mph107.8 kmh - -
Humidity 60% 80% 19% 50%
Pressure 29.78 in1008.5 mb 29.78 in1008.5 mb 29.61 in1002.7 mb -
Hour Temp Dew Point Humidity Winds Wind Gusts Pressure Precip Precip Rate Daily Precip Total
08:45 PM 70.1°F21.2°C 55.6°F13.1°C 60% 12.0 mph WNW19.3 kmh WNW 16.0 mph25.7 kmh 29.78 in1008.5 mb 0.00 in0.0 mm 0.00 in0.0 mm 0.10 in2.5 mm
08:40 PM 70.3°F21.3°C 55.3°F12.9°C 59% 6.0 mph NW9.7 kmh NW 8.0 mph12.9 kmh 29.78 in1008.5 mb 0.00 in0.0 mm 0.00 in0.0 mm 0.10 in2.5 mm
08:35 PM 70.4°F21.3°C 54.5°F12.5°C 57% 2.0 mph N3.2 kmh N 5.0 mph8.0 kmh 29.78 in1008.5 mb 0.00 in0.0 mm 0.00 in0.0 mm 0.10 in2.5 mm
08:30 PM 70.4°F21.3°C 54.5°F12.5°C 57% Calm Calm 1.0 mph1.6 kmh 29.77 in1008.1 mb 0.00 in0.0 mm 0.00 in0.0 mm 0.10 in2.5 mm
08:25 PM 70.5°F21.4°C 55.0°F12.8°C 58% 8.0 mph N12.9 kmh N 8.0 mph12.9 kmh 29.77 in1008.1 mb 0.00 in0.0 mm 0.00 in0.0 mm 0.10 in2.5 mm
08:20 PM 70.7°F21.5°C 55.7°F13.2°C 59% Calm Calm 3.0 mph4.8 kmh 29.76 in1007.8 mb 0.00 in0.0 mm 0.00 in0.0 mm 0.10 in2.5 mm
08:15 PM 70.8°F21.6°C 55.3°F12.9°C 58% 4.0 mph S6.4 kmh S 12.0 mph19.3 kmh 29.76 in1007.8 mb 0.00 in0.0 mm 0.00 in0.0 mm 0.10 in2.5 mm
08:10 PM 71.1°F21.7°C 55.6°F13.1°C 58% 10.0 mph S16.1 kmh S 10.0 mph16.1 kmh 29.75 in1007.5 mb 0.00 in0.0 mm 0.00 in0.0 mm 0.10 in2.5 mm
08:05 PM 71.6°F22.0°C 55.6°F13.1°C 57% 2.0 mph WSW3.2 kmh WSW 16.0 mph25.7 kmh 29.74 in1007.1 mb 0.00 in0.0 mm 0.00 in0.0 mm 0.10 in2.5 mm
08:00 PM 71.8°F22.1°C 55.3°F12.9°C 56% 10.0 mph NW16.1 kmh NW 16.0 mph25.7 kmh 29.73 in1006.8 mb 0.00 in0.0 mm 0.00 in0.0 mm 0.10 in2.5 mm
07:55 PM 71.7°F22.1°C 54.2°F12.3°C 54% 11.0 mph N17.7 kmh N 29.0 mph46.7 kmh 29.72 in1006.4 mb 0.00 in0.0 mm 0.00 in0.0 mm 0.10 in2.5 mm
07:50 PM 71.5°F21.9°C 56.0°F13.3°C 58% 12.0 mph NNW19.3 kmh NNW 29.0 mph46.7 kmh 29.71 in1006.1 mb 0.00 in0.0 mm 0.00 in0.0 mm 0.10 in2.5 mm
07:45 PM 71.4°F21.9°C 56.8°F13.8°C 60% 30.0 mph N48.3 kmh N 30.0 mph48.3 kmh 29.71 in1006.1 mb 0.00 in0.0 mm 0.00 in0.0 mm 0.10 in2.5 mm
07:40 PM 71.3°F21.8°C 57.2°F14.0°C 61% 20.0 mph WNW32.2 kmh WNW 20.0 mph32.2 kmh 29.71 in1006.1 mb 0.00 in0.0 mm 0.00 in0.0 mm 0.10 in2.5 mm
07:35 PM 71.1°F21.7°C 57.0°F13.9°C 61% 10.0 mph NW16.1 kmh NW 26.0 mph41.8 kmh 29.72 in1006.4 mb 0.00 in0.0 mm 0.00 in0.0 mm 0.10 in2.5 mm
07:30 PM 70.8°F21.6°C 57.2°F14.0°C 62% 13.0 mph WNW20.9 kmh WNW 16.0 mph25.7 kmh 29.72 in1006.4 mb 0.00 in0.0 mm 0.00 in0.0 mm 0.10 in2.5 mm
07:25 PM 70.7°F21.5°C 57.1°F13.9°C 62% 10.0 mph NW16.1 kmh NW 22.0 mph35.4 kmh 29.72 in1006.4 mb 0.00 in0.0 mm 0.00 in0.0 mm 0.10 in2.5 mm
07:20 PM 70.8°F21.6°C 57.2°F14.0°C 62% 14.0 mph NW22.5 kmh NW 18.0 mph29.0 kmh 29.73 in1006.8 mb 0.00 in0.0 mm 0.00 in0.0 mm 0.10 in2.5 mm
07:15 PM 71.2°F21.8°C 57.5°F14.2°C 62% 12.0 mph NW19.3 kmh NW 19.0 mph30.6 kmh 29.73 in1006.8 mb 0.00 in0.0 mm 0.00 in0.0 mm 0.10 in2.5 mm
07:10 PM 71.4°F21.9°C 57.3°F14.1°C 61% 8.0 mph WSW12.9 kmh WSW 15.0 mph24.1 kmh 29.74 in1007.1 mb 0.00 in0.0 mm 0.00 in0.0 mm 0.10 in2.5 mm
07:05 PM 71.6°F22.0°C 57.0°F13.9°C 60% 6.0 mph WNW9.7 kmh WNW 13.0 mph20.9 kmh 29.73 in1006.8 mb 0.00 in0.0 mm 0.00 in0.0 mm 0.10 in2.5 mm
07:00 PM 72.1°F22.3°C 57.0°F13.9°C 59% 7.0 mph SSW11.3 kmh SSW 9.0 mph14.5 kmh 29.73 in1006.8 mb 0.00 in0.0 mm 0.00 in0.0 mm 0.10 in2.5 mm
06:55 PM 72.4°F22.4°C 56.3°F13.5°C 57% 4.0 mph NW6.4 kmh NW 10.0 mph16.1 kmh 29.73 in1006.8 mb 0.00 in0.0 mm 0.00 in0.0 mm 0.10 in2.5 mm
06:50 PM 72.5°F22.5°C 56.9°F13.8°C 58% Calm Calm 1.0 mph1.6 kmh 29.73 in1006.8 mb 0.00 in0.0 mm 0.00 in0.0 mm 0.10 in2.5 mm
06:45 PM 72.4°F22.4°C 57.3°F14.1°C 59% Calm Calm 6.0 mph9.7 kmh 29.72 in1006.4 mb 0.00 in0.0 mm 0.00 in0.0 mm 0.10 in2.5 mm
06:40 PM 72.0°F22.2°C 56.9°F13.8°C 59% 2.0 mph SE3.2 kmh SE 4.0 mph6.4 kmh 29.72 in1006.4 mb 0.00 in0.0 mm 0.00 in0.0 mm 0.10 in2.5 mm
06:35 PM 71.7°F22.1°C 57.6°F14.2°C 61% Calm Calm 10.0 mph16.1 kmh 29.72 in1006.4 mb 0.00 in0.0 mm 0.00 in0.0 mm 0.10 in2.5 mm
06:30 PM 71.2°F21.8°C 56.6°F13.7°C 60% 4.0 mph SE6.4 kmh SE 10.0 mph16.1 kmh 29.72 in1006.4 mb 0.00 in0.0 mm 0.00 in0.0 mm 0.10 in2.5 mm
06:25 PM 70.9°F21.6°C 55.9°F13.3°C 59% 4.0 mph WSW6.4 kmh WSW 30.0 mph48.3 kmh 29.71 in1006.1 mb 0.00 in0.0 mm 0.00 in0.0 mm 0.10 in2.5 mm
06:20 PM 70.6°F21.4°C 55.6°F13.1°C 59% 6.0 mph N9.7 kmh N 30.0 mph48.3 kmh 29.70 in1005.8 mb 0.00 in0.0 mm 0.00 in0.0 mm 0.10 in2.5 mm
06:15 PM 70.1°F21.2°C 56.0°F13.3°C 61% 12.0 mph NNE19.3 kmh NNE 30.0 mph48.3 kmh 29.69 in1005.4 mb 0.00 in0.0 mm 0.00 in0.0 mm 0.10 in2.5 mm
06:10 PM 69.2°F20.7°C 55.6°F13.1°C 62% 14.0 mph NNE22.5 kmh NNE 30.0 mph48.3 kmh 29.68 in1005.1 mb 0.00 in0.0 mm 0.00 in0.0 mm 0.10 in2.5 mm
06:05 PM 67.4°F19.7°C 55.2°F12.9°C 65% 19.0 mph N30.6 kmh N 35.0 mph56.3 kmh 29.68 in1005.1 mb 0.00 in0.0 mm 0.00 in0.0 mm 0.10 in2.5 mm
06:00 PM 65.8°F18.8°C 55.8°F13.2°C 70% 20.0 mph N32.2 kmh N 24.0 mph38.6 kmh 29.68 in1005.1 mb 0.00 in0.0 mm 0.00 in0.0 mm 0.10 in2.5 mm
05:55 PM 64.7°F18.2°C 56.2°F13.4°C 74% 12.0 mph N19.3 kmh N 30.0 mph48.3 kmh 29.68 in1005.1 mb 0.04 in1.0 mm 0.00 in0.0 mm 0.10 in2.5 mm
05:50 PM 64.3°F17.9°C 56.6°F13.7°C 76% 11.0 mph NW17.7 kmh NW 20.0 mph32.2 kmh 29.67 in1004.7 mb 0.04 in1.0 mm 0.00 in0.0 mm 0.10 in2.5 mm
05:45 PM 64.6°F18.1°C 58.3°F14.6°C 80% 15.0 mph N24.1 kmh N 26.0 mph41.8 kmh 29.68 in1005.1 mb 0.10 in2.5 mm 0.00 in0.0 mm 0.10 in2.5 mm
05:40 PM 64.7°F18.2°C 58.4°F14.7°C 80% 9.0 mph NNW14.5 kmh NNW 18.0 mph29.0 kmh 29.68 in1005.1 mb 0.10 in2.5 mm 0.00 in0.0 mm 0.10 in2.5 mm
05:35 PM 64.8°F18.2°C 58.1°F14.5°C 79% 5.0 mph NNE8.0 kmh NNE 28.0 mph45.1 kmh 29.67 in1004.7 mb 0.10 in2.5 mm 0.00 in0.0 mm 0.10 in2.5 mm
05:30 PM 65.4°F18.6°C 57.7°F14.3°C 76% 22.0 mph NE35.4 kmh NE 28.0 mph45.1 kmh 29.66 in1004.4 mb 0.10 in2.5 mm 0.00 in0.0 mm 0.10 in2.5 mm
05:25 PM 65.9°F18.8°C 58.1°F14.5°C 76% 20.0 mph NNE32.2 kmh NNE 38.0 mph61.2 kmh 29.66 in1004.4 mb 0.10 in2.5 mm 0.00 in0.0 mm 0.10 in2.5 mm
05:20 PM 65.8°F18.8°C 57.7°F14.3°C 75% 24.0 mph N38.6 kmh N 37.0 mph59.5 kmh 29.67 in1004.7 mb 0.10 in2.5 mm 0.00 in0.0 mm 0.10 in2.5 mm
05:15 PM 65.8°F18.8°C 58.0°F14.4°C 76% 24.0 mph NNW38.6 kmh NNW 26.0 mph41.8 kmh 29.67 in1004.7 mb 0.10 in2.5 mm 0.00 in0.0 mm 0.10 in2.5 mm
05:10 PM 65.9°F18.8°C 58.5°F14.7°C 77% 17.0 mph N27.4 kmh N 20.0 mph32.2 kmh 29.68 in1005.1 mb 0.10 in2.5 mm 0.00 in0.0 mm 0.10 in2.5 mm
05:05 PM 66.1°F18.9°C 58.3°F14.6°C 76% 13.0 mph NW20.9 kmh NW 40.0 mph64.4 kmh 29.68 in1005.1 mb 0.10 in2.5 mm 0.00 in0.0 mm 0.10 in2.5 mm
05:00 PM 66.7°F19.3°C 58.9°F14.9°C 76% 6.0 mph NNE9.7 kmh NNE 14.0 mph22.5 kmh 29.68 in1005.1 mb 0.10 in2.5 mm 0.01 in0.3 mm 0.10 in2.5 mm
04:55 PM 67.6°F19.8°C 58.3°F14.6°C 72% 16.0 mph NNW25.7 kmh NNW 29.0 mph46.7 kmh 29.68 in1005.1 mb 0.09 in2.3 mm 0.24 in6.1 mm 0.09 in2.3 mm
04:50 PM 69.4°F20.8°C 58.0°F14.4°C 67% 10.0 mph NW16.1 kmh NW 27.0 mph43.5 kmh 29.67 in1004.7 mb 0.07 in1.8 mm 0.48 in12.2 mm 0.07 in1.8 mm
04:45 PM 72.5°F22.5°C 58.3°F14.6°C 61% 17.0 mph NW27.4 kmh NW 45.0 mph72.4 kmh 29.68 in1005.1 mb 0.03 in0.8 mm 0.36 in9.1 mm 0.03 in0.8 mm
04:40 PM 75.6°F24.2°C 55.7°F13.2°C 50% 12.0 mph W19.3 kmh W 45.0 mph72.4 kmh 29.69 in1005.4 mb 0.00 in0.0 mm 0.00 in0.0 mm 0.00 in0.0 mm
04:35 PM 78.3°F25.7°C 54.0°F12.2°C 43% 26.0 mph NW41.8 kmh NW 67.0 mph107.8 kmh 29.70 in1005.8 mb 0.00 in0.0 mm 0.00 in0.0 mm 0.00 in0.0 mm
04:30 PM 82.6°F28.1°C 54.5°F12.5°C 38% 38.0 mph NW61.2 kmh NW 67.0 mph107.8 kmh 29.66 in1004.4 mb 0.00 in0.0 mm 0.00 in0.0 mm 0.00 in0.0 mm
04:25 PM 85.4°F29.7°C 52.2°F11.2°C 32% 22.0 mph SW35.4 kmh SW 48.0 mph77.2 kmh 29.65 in1004.1 mb 0.00 in0.0 mm 0.00 in0.0 mm 0.00 in0.0 mm
04:20 PM 87.8°F31.0°C 54.3°F12.4°C 32% 14.0 mph S22.5 kmh S 16.0 mph25.7 kmh 29.63 in1003.4 mb 0.00 in0.0 mm 0.00 in0.0 mm 0.00 in0.0 mm
04:15 PM 88.3°F31.3°C 53.9°F12.2°C 31% 5.0 mph SE8.0 kmh SE 14.0 mph22.5 kmh 29.63 in1003.4 mb 0.00 in0.0 mm 0.00 in0.0 mm 0.00 in0.0 mm
04:10 PM 88.8°F31.6°C 53.4°F11.9°C 30% 2.0 mph SE3.2 kmh SE 6.0 mph9.7 kmh 29.62 in1003.0 mb 0.00 in0.0 mm 0.00 in0.0 mm 0.00 in0.0 mm
04:05 PM 89.1°F31.7°C 53.7°F12.1°C 30% 7.0 mph ESE11.3 kmh ESE 10.0 mph16.1 kmh 29.62 in1003.0 mb 0.00 in0.0 mm 0.00 in0.0 mm 0.00 in0.0 mm
04:00 PM 89.3°F31.8°C 52.9°F11.6°C 29% 4.0 mph SE6.4 kmh SE 8.0 mph12.9 kmh 29.62 in1003.0 mb 0.00 in0.0 mm 0.00 in0.0 mm 0.00 in0.0 mm
03:55 PM 89.8°F32.1°C 54.3°F12.4°C 30% 1.0 mph ESE1.6 kmh ESE 11.0 mph17.7 kmh 29.62 in1003.0 mb 0.00 in0.0 mm 0.00 in0.0 mm 0.00 in0.0 mm
03:50 PM 90.1°F32.3°C 53.6°F12.0°C 29% 1.0 mph ESE1.6 kmh ESE 8.0 mph12.9 kmh 29.62 in1003.0 mb 0.00 in0.0 mm 0.00 in0.0 mm 0.00 in0.0 mm
03:45 PM 90.5°F32.5°C 53.9°F12.2°C 29% 1.0 mph NW1.6 kmh NW 14.0 mph22.5 kmh 29.62 in1003.0 mb 0.00 in0.0 mm 0.00 in0.0 mm 0.00 in0.0 mm
03:40 PM 90.6°F32.6°C 54.0°F12.2°C 29% 2.0 mph NE3.2 kmh NE 7.0 mph11.3 kmh 29.61 in1002.7 mb 0.00 in0.0 mm 0.00 in0.0 mm 0.00 in0.0 mm
03:35 PM 91.0°F32.8°C 55.3°F12.9°C 30% 9.0 mph ESE14.5 kmh ESE 26.0 mph41.8 kmh 29.61 in1002.7 mb 0.00 in0.0 mm 0.00 in0.0 mm 0.00 in0.0 mm
03:30 PM 91.7°F33.2°C 55.0°F12.8°C 29% 9.0 mph ENE14.5 kmh ENE 26.0 mph41.8 kmh 29.61 in1002.7 mb 0.00 in0.0 mm 0.00 in0.0 mm 0.00 in0.0 mm
03:25 PM 92.8°F33.8°C 54.9°F12.7°C 28% 12.0 mph SE19.3 kmh SE 21.0 mph33.8 kmh 29.62 in1003.0 mb 0.00 in0.0 mm 0.00 in0.0 mm 0.00 in0.0 mm
03:20 PM 93.2°F34.0°C 55.3°F12.9°C 28% 12.0 mph NE19.3 kmh NE 16.0 mph25.7 kmh 29.62 in1003.0 mb 0.00 in0.0 mm 0.00 in0.0 mm 0.00 in0.0 mm
03:15 PM 93.4°F34.1°C 55.5°F13.1°C 28% 9.0 mph E14.5 kmh E 25.0 mph40.2 kmh 29.62 in1003.0 mb 0.00 in0.0 mm 0.00 in0.0 mm 0.00 in0.0 mm
03:10 PM 93.3°F34.1°C 55.4°F13.0°C 28% 13.0 mph ENE20.9 kmh ENE 25.0 mph40.2 kmh 29.62 in1003.0 mb 0.00 in0.0 mm 0.00 in0.0 mm 0.00 in0.0 mm
03:05 PM 92.4°F33.6°C 55.6°F13.1°C 29% 7.0 mph SE11.3 kmh SE 23.0 mph37.0 kmh 29.62 in1003.0 mb 0.00 in0.0 mm 0.00 in0.0 mm 0.00 in0.0 mm
03:00 PM 91.6°F33.1°C 55.8°F13.2°C 30% 17.0 mph ESE27.4 kmh ESE 17.0 mph27.4 kmh 29.63 in1003.4 mb 0.00 in0.0 mm 0.00 in0.0 mm 0.00 in0.0 mm
02:55 PM 91.5°F33.1°C 53.8°F12.1°C 28% 10.0 mph E16.1 kmh E 26.0 mph41.8 kmh 29.63 in1003.4 mb 0.00 in0.0 mm 0.00 in0.0 mm 0.00 in0.0 mm
02:50 PM 91.6°F33.1°C 51.9°F11.1°C 26% 7.0 mph SE11.3 kmh SE 18.0 mph29.0 kmh 29.62 in1003.0 mb 0.00 in0.0 mm 0.00 in0.0 mm 0.00 in0.0 mm
02:45 PM 92.6°F33.7°C 50.6°F10.3°C 24% 15.0 mph E24.1 kmh E 20.0 mph32.2 kmh 29.62 in1003.0 mb 0.00 in0.0 mm 0.00 in0.0 mm 0.00 in0.0 mm
02:40 PM 93.5°F34.2°C 50.2°F10.1°C 23% 17.0 mph ESE27.4 kmh ESE 19.0 mph30.6 kmh 29.62 in1003.0 mb 0.00 in0.0 mm 0.00 in0.0 mm 0.00 in0.0 mm
02:35 PM 93.6°F34.2°C 51.4°F10.8°C 24% Calm Calm 25.0 mph40.2 kmh 29.61 in1002.7 mb 0.00 in0.0 mm 0.00 in0.0 mm 0.00 in0.0 mm
02:30 PM 94.1°F34.5°C 50.7°F10.4°C 23% 8.0 mph NNE12.9 kmh NNE 10.0 mph16.1 kmh 29.62 in1003.0 mb 0.00 in0.0 mm 0.00 in0.0 mm 0.00 in0.0 mm
02:25 PM 93.6°F34.2°C 52.5°F11.4°C 25% 14.0 mph ESE22.5 kmh ESE 28.0 mph45.1 kmh 29.62 in1003.0 mb 0.00 in0.0 mm 0.00 in0.0 mm 0.00 in0.0 mm
02:20 PM 92.9°F33.8°C 51.9°F11.1°C 25% 27.0 mph E43.5 kmh E 28.0 mph45.1 kmh 29.63 in1003.4 mb 0.00 in0.0 mm 0.00 in0.0 mm 0.00 in0.0 mm
02:15 PM 93.5°F34.2°C 50.2°F10.1°C 23% 16.0 mph NE25.7 kmh NE 22.0 mph35.4 kmh 29.63 in1003.4 mb 0.00 in0.0 mm 0.00 in0.0 mm 0.00 in0.0 mm
02:10 PM 94.7°F34.8°C 52.3°F11.3°C 24% 7.0 mph ENE11.3 kmh ENE 10.0 mph16.1 kmh 29.63 in1003.4 mb 0.00 in0.0 mm 0.00 in0.0 mm 0.00 in0.0 mm
02:05 PM 95.7°F35.4°C 52.0°F11.1°C 23% 15.0 mph ENE24.1 kmh ENE 28.0 mph45.1 kmh 29.63 in1003.4 mb 0.00 in0.0 mm 0.00 in0.0 mm 0.00 in0.0 mm
02:00 PM 95.2°F35.1°C 47.9°F8.8°C 20% 7.0 mph E11.3 kmh E 11.0 mph17.7 kmh 29.63 in1003.4 mb 0.00 in0.0 mm 0.00 in0.0 mm 0.00 in0.0 mm
01:55 PM 94.6°F34.8°C 47.4°F8.6°C 20% 8.0 mph NE12.9 kmh NE 21.0 mph33.8 kmh 29.64 in1003.7 mb 0.00 in0.0 mm 0.00 in0.0 mm 0.00 in0.0 mm
01:50 PM 94.7°F34.8°C 46.1°F7.8°C 19% 7.0 mph ENE11.3 kmh ENE 9.0 mph14.5 kmh 29.64 in1003.7 mb 0.00 in0.0 mm 0.00 in0.0 mm 0.00 in0.0 mm
01:45 PM 95.2°F35.1°C 47.9°F8.8°C 20% 17.0 mph NE27.4 kmh NE 21.0 mph33.8 kmh 29.64 in1003.7 mb 0.00 in0.0 mm 0.00 in0.0 mm 0.00 in0.0 mm
01:40 PM 93.8°F34.3°C 48.0°F8.9°C 21% 5.0 mph ESE8.0 kmh ESE 13.0 mph20.9 kmh 29.64 in1003.7 mb 0.00 in0.0 mm 0.00 in0.0 mm 0.00 in0.0 mm
01:35 PM 92.8°F33.8°C 45.9°F7.7°C 20% 8.0 mph NW12.9 kmh NW 21.0 mph33.8 kmh 29.64 in1003.7 mb 0.00 in0.0 mm 0.00 in0.0 mm 0.00 in0.0 mm
01:30 PM 92.9°F33.8°C 46.0°F7.8°C 20% 4.0 mph NNW6.4 kmh NNW 10.0 mph16.1 kmh 29.64 in1003.7 mb 0.00 in0.0 mm 0.00 in0.0 mm 0.00 in0.0 mm
01:25 PM 93.4°F34.1°C 46.4°F8.0°C 20% 17.0 mph ENE27.4 kmh ENE 23.0 mph37.0 kmh 29.65 in1004.1 mb 0.00 in0.0 mm 0.00 in0.0 mm 0.00 in0.0 mm
01:20 PM 93.1°F33.9°C 46.1°F7.8°C 20% 8.0 mph N12.9 kmh N 9.0 mph14.5 kmh 29.64 in1003.7 mb 0.00 in0.0 mm 0.00 in0.0 mm 0.00 in0.0 mm
01:15 PM 92.5°F33.6°C 46.9°F8.3°C 21% 19.0 mph N30.6 kmh N 20.0 mph32.2 kmh 29.64 in1003.7 mb 0.00 in0.0 mm 0.00 in0.0 mm 0.00 in0.0 mm
01:10 PM 91.6°F33.1°C 47.4°F8.6°C 22% 6.0 mph NE9.7 kmh NE 13.0 mph20.9 kmh 29.65 in1004.1 mb 0.00 in0.0 mm 0.00 in0.0 mm 0.00 in0.0 mm
01:05 PM 91.4°F33.0°C 44.7°F7.1°C 20% 11.0 mph NE17.7 kmh NE 19.0 mph30.6 kmh 29.65 in1004.1 mb 0.00 in0.0 mm 0.00 in0.0 mm 0.00 in0.0 mm
01:00 PM 91.6°F33.1°C 46.2°F7.9°C 21% 10.0 mph NE16.1 kmh NE 16.0 mph25.7 kmh 29.65 in1004.1 mb 0.00 in0.0 mm 0.00 in0.0 mm 0.00 in0.0 mm
12:55 PM 92.0°F33.3°C 46.5°F8.1°C 21% 16.0 mph NE25.7 kmh NE 26.0 mph41.8 kmh 29.65 in1004.1 mb 0.00 in0.0 mm 0.00 in0.0 mm 0.00 in0.0 mm
12:50 PM 92.0°F33.3°C 48.9°F9.4°C 23% 4.0 mph E6.4 kmh E 7.0 mph11.3 kmh 29.65 in1004.1 mb 0.00 in0.0 mm 0.00 in0.0 mm 0.00 in0.0 mm
12:45 PM 92.9°F33.8°C 47.3°F8.5°C 21% 15.0 mph NE24.1 kmh NE 24.0 mph38.6 kmh 29.65 in1004.1 mb 0.00 in0.0 mm 0.00 in0.0 mm 0.00 in0.0 mm
12:40 PM 94.0°F34.4°C 46.9°F8.3°C 20% 13.0 mph NE20.9 kmh NE 13.0 mph20.9 kmh 29.65 in1004.1 mb 0.00 in0.0 mm 0.00 in0.0 mm 0.00 in0.0 mm
12:35 PM 93.8°F34.3°C 48.0°F8.9°C 21% 8.0 mph NE12.9 kmh NE 17.0 mph27.4 kmh 29.65 in1004.1 mb 0.00 in0.0 mm 0.00 in0.0 mm 0.00 in0.0 mm
12:30 PM 93.0°F33.9°C 48.6°F9.2°C 22% 8.0 mph NNE12.9 kmh NNE 10.0 mph16.1 kmh 29.65 in1004.1 mb 0.00 in0.0 mm 0.00 in0.0 mm 0.00 in0.0 mm
12:25 PM 92.7°F33.7°C 48.3°F9.1°C 22% 10.0 mph NE16.1 kmh NE 27.0 mph43.5 kmh 29.65 in1004.1 mb 0.00 in0.0 mm 0.00 in0.0 mm 0.00 in0.0 mm
12:20 PM 92.7°F33.7°C 47.1°F8.4°C 21% 13.0 mph NE20.9 kmh NE 16.0 mph25.7 kmh 29.66 in1004.4 mb 0.00 in0.0 mm 0.00 in0.0 mm 0.00 in0.0 mm
12:15 PM 92.4°F33.6°C 48.1°F8.9°C 22% 3.0 mph N4.8 kmh N 22.0 mph35.4 kmh 29.66 in1004.4 mb 0.00 in0.0 mm 0.00 in0.0 mm 0.00 in0.0 mm
12:10 PM 91.9°F33.3°C 48.9°F9.4°C 23% 20.0 mph NE32.2 kmh NE 22.0 mph35.4 kmh 29.66 in1004.4 mb 0.00 in0.0 mm 0.00 in0.0 mm 0.00 in0.0 mm
12:05 PM 91.8°F33.2°C 48.8°F9.3°C 23% 10.0 mph ENE16.1 kmh ENE 31.0 mph49.9 kmh 29.66 in1004.4 mb 0.00 in0.0 mm 0.00 in0.0 mm 0.00 in0.0 mm
12:00 PM 91.7°F33.2°C 49.8°F9.9°C 24% 14.0 mph ENE22.5 kmh ENE 26.0 mph41.8 kmh 29.66 in1004.4 mb 0.00 in0.0 mm 0.00 in0.0 mm 0.00 in0.0 mm
11:55 AM 90.8°F32.7°C 50.2°F10.1°C 25% 5.0 mph E8.0 kmh E 24.0 mph38.6 kmh 29.66 in1004.4 mb 0.00 in0.0 mm 0.00 in0.0 mm 0.00 in0.0 mm
11:50 AM 89.8°F32.1°C 47.1°F8.4°C 23% 2.0 mph NNE3.2 kmh NNE 8.0 mph12.9 kmh 29.66 in1004.4 mb 0.00 in0.0 mm 0.00 in0.0 mm 0.00 in0.0 mm
11:45 AM 90.2°F32.3°C 48.6°F9.2°C 24% 19.0 mph NE30.6 kmh NE 27.0 mph43.5 kmh 29.66 in1004.4 mb 0.00 in0.0 mm 0.00 in0.0 mm 0.00 in0.0 mm
11:40 AM 90.7°F32.6°C 49.0°F9.4°C 24% 4.0 mph E6.4 kmh E 9.0 mph14.5 kmh 29.66 in1004.4 mb 0.00 in0.0 mm 0.00 in0.0 mm 0.00 in0.0 mm
11:35 AM 91.4°F33.0°C 48.4°F9.1°C 23% 14.0 mph NE22.5 kmh NE 32.0 mph51.5 kmh 29.66 in1004.4 mb 0.00 in0.0 mm 0.00 in0.0 mm 0.00 in0.0 mm
11:30 AM 91.5°F33.1°C 48.5°F9.2°C 23% 15.0 mph ENE24.1 kmh ENE 15.0 mph24.1 kmh 29.67 in1004.7 mb 0.00 in0.0 mm 0.00 in0.0 mm 0.00 in0.0 mm
11:25 AM 90.2°F32.3°C 48.6°F9.2°C 24% Calm Calm 24.0 mph38.6 kmh 29.67 in1004.7 mb 0.00 in0.0 mm 0.00 in0.0 mm 0.00 in0.0 mm
11:20 AM 89.8°F32.1°C 47.1°F8.4°C 23% 14.0 mph NE22.5 kmh NE 14.0 mph22.5 kmh 29.67 in1004.7 mb 0.00 in0.0 mm 0.00 in0.0 mm 0.00 in0.0 mm
11:15 AM 89.6°F32.0°C 48.1°F8.9°C 24% 14.0 mph N22.5 kmh N 23.0 mph37.0 kmh 29.67 in1004.7 mb 0.00 in0.0 mm 0.00 in0.0 mm 0.00 in0.0 mm
11:10 AM 89.3°F31.8°C 47.8°F8.8°C 24% 6.0 mph NE9.7 kmh NE 6.0 mph9.7 kmh 29.67 in1004.7 mb 0.00 in0.0 mm 0.00 in0.0 mm 0.00 in0.0 mm
11:05 AM 89.5°F31.9°C 48.0°F8.9°C 24% 11.0 mph ENE17.7 kmh ENE 18.0 mph29.0 kmh 29.67 in1004.7 mb 0.00 in0.0 mm 0.00 in0.0 mm 0.00 in0.0 mm
11:00 AM 89.0°F31.7°C 51.7°F10.9°C 28% 6.0 mph NW9.7 kmh NW 10.0 mph16.1 kmh 29.67 in1004.7 mb 0.00 in0.0 mm 0.00 in0.0 mm 0.00 in0.0 mm
10:55 AM 88.2°F31.2°C 49.0°F9.4°C 26% 12.0 mph NE19.3 kmh NE 18.0 mph29.0 kmh 29.67 in1004.7 mb 0.00 in0.0 mm 0.00 in0.0 mm 0.00 in0.0 mm
10:50 AM 87.9°F31.1°C 48.8°F9.3°C 26% 8.0 mph NNE12.9 kmh NNE 12.0 mph19.3 kmh 29.67 in1004.7 mb 0.00 in0.0 mm 0.00 in0.0 mm 0.00 in0.0 mm
10:45 AM 87.1°F30.6°C 50.1°F10.1°C 28% 6.0 mph NW9.7 kmh NW 16.0 mph25.7 kmh 29.67 in1004.7 mb 0.00 in0.0 mm 0.00 in0.0 mm 0.00 in0.0 mm
10:40 AM 86.3°F30.2°C 50.3°F10.2°C 29% 8.0 mph WSW12.9 kmh WSW 8.0 mph12.9 kmh 29.67 in1004.7 mb 0.00 in0.0 mm 0.00 in0.0 mm 0.00 in0.0 mm
10:35 AM 85.6°F29.8°C 50.7°F10.4°C 30% 5.0 mph N8.0 kmh N 17.0 mph27.4 kmh 29.67 in1004.7 mb 0.00 in0.0 mm 0.00 in0.0 mm 0.00 in0.0 mm
10:30 AM 85.4°F29.7°C 50.5°F10.3°C 30% 10.0 mph NE16.1 kmh NE 16.0 mph25.7 kmh 29.67 in1004.7 mb 0.00 in0.0 mm 0.00 in0.0 mm 0.00 in0.0 mm
10:25 AM 85.2°F29.6°C 51.2°F10.7°C 31% 10.0 mph N16.1 kmh N 12.0 mph19.3 kmh 29.67 in1004.7 mb 0.00 in0.0 mm 0.00 in0.0 mm 0.00 in0.0 mm
10:20 AM 84.5°F29.2°C 51.4°F10.8°C 32% 8.0 mph NW12.9 kmh NW 8.0 mph12.9 kmh 29.67 in1004.7 mb 0.00 in0.0 mm 0.00 in0.0 mm 0.00 in0.0 mm
10:15 AM 83.9°F28.8°C 51.8°F11.0°C 33% 1.0 mph NW1.6 kmh NW 18.0 mph29.0 kmh 29.67 in1004.7 mb 0.00 in0.0 mm 0.00 in0.0 mm 0.00 in0.0 mm
10:10 AM 83.8°F28.8°C 52.5°F11.4°C 34% 8.0 mph NW12.9 kmh NW 11.0 mph17.7 kmh 29.67 in1004.7 mb 0.00 in0.0 mm 0.00 in0.0 mm 0.00 in0.0 mm
10:05 AM 83.8°F28.8°C 53.3°F11.8°C 35% 12.0 mph WNW19.3 kmh WNW 18.0 mph29.0 kmh 29.67 in1004.7 mb 0.00 in0.0 mm 0.00 in0.0 mm 0.00 in0.0 mm
10:00 AM 83.8°F28.8°C 53.3°F11.8°C 35% 8.0 mph WSW12.9 kmh WSW 10.0 mph16.1 kmh 29.67 in1004.7 mb 0.00 in0.0 mm 0.00 in0.0 mm 0.00 in0.0 mm
09:55 AM 83.8°F28.8°C 52.5°F11.4°C 34% 10.0 mph NW16.1 kmh NW 18.0 mph29.0 kmh 29.67 in1004.7 mb 0.00 in0.0 mm 0.00 in0.0 mm 0.00 in0.0 mm
09:50 AM 83.6°F28.7°C 53.1°F11.7°C 35% 10.0 mph NW16.1 kmh NW 18.0 mph29.0 kmh 29.67 in1004.7 mb 0.00 in0.0 mm 0.00 in0.0 mm 0.00 in0.0 mm
09:45 AM 83.3°F28.5°C 52.0°F11.1°C 34% 12.0 mph W19.3 kmh W 22.0 mph35.4 kmh 29.67 in1004.7 mb 0.00 in0.0 mm 0.00 in0.0 mm 0.00 in0.0 mm
09:40 AM 82.8°F28.2°C 52.4°F11.3°C 35% 7.0 mph NW11.3 kmh NW 12.0 mph19.3 kmh 29.67 in1004.7 mb 0.00 in0.0 mm 0.00 in0.0 mm 0.00 in0.0 mm
09:35 AM 81.8°F27.7°C 53.0°F11.7°C 37% 7.0 mph W11.3 kmh W 14.0 mph22.5 kmh 29.67 in1004.7 mb 0.00 in0.0 mm 0.00 in0.0 mm 0.00 in0.0 mm
09:30 AM 80.8°F27.1°C 53.6°F12.0°C 39% 10.0 mph WSW16.1 kmh WSW 12.0 mph19.3 kmh 29.67 in1004.7 mb 0.00 in0.0 mm 0.00 in0.0 mm 0.00 in0.0 mm
09:25 AM 80.0°F26.7°C 55.5°F13.1°C 43% 8.0 mph WNW12.9 kmh WNW 8.0 mph12.9 kmh 29.67 in1004.7 mb 0.00 in0.0 mm 0.00 in0.0 mm 0.00 in0.0 mm
09:20 AM 78.7°F25.9°C 56.8°F13.8°C 47% 2.0 mph SSW3.2 kmh SSW 2.0 mph3.2 kmh 29.67 in1004.7 mb 0.00 in0.0 mm 0.00 in0.0 mm 0.00 in0.0 mm
09:15 AM 77.4°F25.2°C 56.2°F13.4°C 48% Calm Calm 4.0 mph6.4 kmh 29.67 in1004.7 mb 0.00 in0.0 mm 0.00 in0.0 mm 0.00 in0.0 mm
09:10 AM 76.7°F24.8°C 56.1°F13.4°C 49% Calm Calm 4.0 mph6.4 kmh 29.67 in1004.7 mb 0.00 in0.0 mm 0.00 in0.0 mm 0.00 in0.0 mm
09:05 AM 76.0°F24.4°C 57.1°F13.9°C 52% 1.0 mph SSW1.6 kmh SSW 7.0 mph11.3 kmh 29.67 in1004.7 mb 0.00 in0.0 mm 0.00 in0.0 mm 0.00 in0.0 mm
09:00 AM 75.4°F24.1°C 56.0°F13.3°C 51% 6.0 mph SSW9.7 kmh SSW 7.0 mph11.3 kmh 29.67 in1004.7 mb 0.00 in0.0 mm 0.00 in0.0 mm 0.00 in0.0 mm
08:55 AM 74.9°F23.8°C 56.1°F13.4°C 52% Calm Calm 8.0 mph12.9 kmh 29.67 in1004.7 mb 0.00 in0.0 mm 0.00 in0.0 mm 0.00 in0.0 mm
08:50 AM 74.5°F23.6°C 56.8°F13.8°C 54% 4.0 mph SW6.4 kmh SW 6.0 mph9.7 kmh 29.67 in1004.7 mb 0.00 in0.0 mm 0.00 in0.0 mm 0.00 in0.0 mm
08:45 AM 74.0°F23.3°C 56.8°F13.8°C 55% 1.0 mph WSW1.6 kmh WSW 9.0 mph14.5 kmh 29.67 in1004.7 mb 0.00 in0.0 mm 0.00 in0.0 mm 0.00 in0.0 mm
08:40 AM 73.3°F22.9°C 56.7°F13.7°C 56% Calm Calm 2.0 mph3.2 kmh 29.67 in1004.7 mb 0.00 in0.0 mm 0.00 in0.0 mm 0.00 in0.0 mm
08:35 AM 72.7°F22.6°C 57.1°F13.9°C 58% 2.0 mph WSW3.2 kmh WSW 11.0 mph17.7 kmh 29.67 in1004.7 mb 0.00 in0.0 mm 0.00 in0.0 mm 0.00 in0.0 mm
08:30 AM 72.1°F22.3°C 57.0°F13.9°C 59% 4.0 mph WSW6.4 kmh WSW 7.0 mph11.3 kmh 29.67 in1004.7 mb 0.00 in0.0 mm 0.00 in0.0 mm 0.00 in0.0 mm
08:25 AM 71.7°F22.1°C 57.6°F14.2°C 61% Calm Calm 6.0 mph9.7 kmh 29.67 in1004.7 mb 0.00 in0.0 mm 0.00 in0.0 mm 0.00 in0.0 mm
08:20 AM 71.2°F21.8°C 57.1°F13.9°C 61% Calm Calm 4.0 mph6.4 kmh 29.67 in1004.7 mb 0.00 in0.0 mm 0.00 in0.0 mm 0.00 in0.0 mm
08:15 AM 70.9°F21.6°C 57.3°F14.1°C 62% 4.0 mph WSW6.4 kmh WSW 12.0 mph19.3 kmh 29.67 in1004.7 mb 0.00 in0.0 mm 0.00 in0.0 mm 0.00 in0.0 mm
08:10 AM 70.7°F21.5°C 57.1°F13.9°C 62% 6.0 mph W9.7 kmh W 7.0 mph11.3 kmh 29.67 in1004.7 mb 0.00 in0.0 mm 0.00 in0.0 mm 0.00 in0.0 mm
08:05 AM 70.6°F21.4°C 56.1°F13.4°C 60% 6.0 mph WSW9.7 kmh WSW 12.0 mph19.3 kmh 29.67 in1004.7 mb 0.00 in0.0 mm 0.00 in0.0 mm 0.00 in0.0 mm
08:00 AM 70.5°F21.4°C 56.0°F13.3°C 60% 9.0 mph WSW14.5 kmh WSW 12.0 mph19.3 kmh 29.67 in1004.7 mb 0.00 in0.0 mm 0.00 in0.0 mm 0.00 in0.0 mm
07:55 AM 70.3°F21.3°C 56.2°F13.4°C 61% 8.0 mph WSW12.9 kmh WSW 11.0 mph17.7 kmh 29.67 in1004.7 mb 0.00 in0.0 mm 0.00 in0.0 mm 0.00 in0.0 mm
07:50 AM 69.8°F21.0°C 56.2°F13.4°C 62% 2.0 mph SW3.2 kmh SW 5.0 mph8.0 kmh 29.67 in1004.7 mb 0.00 in0.0 mm 0.00 in0.0 mm 0.00 in0.0 mm
07:45 AM 68.8°F20.4°C 56.6°F13.7°C 65% 4.0 mph W6.4 kmh W 10.0 mph16.1 kmh 29.66 in1004.4 mb 0.00 in0.0 mm 0.00 in0.0 mm 0.00 in0.0 mm
07:40 AM 67.9°F19.9°C 56.6°F13.7°C 67% 1.0 mph W1.6 kmh W 1.0 mph1.6 kmh 29.67 in1004.7 mb 0.00 in0.0 mm 0.00 in0.0 mm 0.00 in0.0 mm
07:35 AM 67.2°F19.6°C 56.3°F13.5°C 68% 11.0 mph WSW17.7 kmh WSW 12.0 mph19.3 kmh 29.66 in1004.4 mb 0.00 in0.0 mm 0.00 in0.0 mm 0.00 in0.0 mm
07:30 AM 66.9°F19.4°C 56.0°F13.3°C 68% 6.0 mph WSW9.7 kmh WSW 10.0 mph16.1 kmh 29.67 in1004.7 mb 0.00 in0.0 mm 0.00 in0.0 mm 0.00 in0.0 mm
07:25 AM 66.8°F19.3°C 55.5°F13.1°C 67% 3.0 mph NW4.8 kmh NW 8.0 mph12.9 kmh 29.67 in1004.7 mb 0.00 in0.0 mm 0.00 in0.0 mm 0.00 in0.0 mm
07:20 AM 66.6°F19.2°C 55.3°F12.9°C 67% 2.0 mph NNE3.2 kmh NNE 2.0 mph3.2 kmh 29.67 in1004.7 mb 0.00 in0.0 mm 0.00 in0.0 mm 0.00 in0.0 mm
07:15 AM 66.2°F19.0°C 55.7°F13.2°C 69% 10.0 mph NE16.1 kmh NE 10.0 mph16.1 kmh 29.66 in1004.4 mb 0.00 in0.0 mm 0.00 in0.0 mm 0.00 in0.0 mm
07:10 AM 65.9°F18.8°C 55.5°F13.1°C 69% Calm Calm -- 29.65 in1004.1 mb 0.00 in0.0 mm 0.00 in0.0 mm 0.00 in0.0 mm
07:05 AM 65.7°F18.7°C 55.3°F12.9°C 69% 2.0 mph SW3.2 kmh SW 12.0 mph19.3 kmh 29.65 in1004.1 mb 0.00 in0.0 mm 0.00 in0.0 mm 0.00 in0.0 mm
07:00 AM 65.4°F18.6°C 55.4°F13.0°C 70% 5.0 mph W8.0 kmh W 7.0 mph11.3 kmh 29.66 in1004.4 mb 0.00 in0.0 mm 0.00 in0.0 mm 0.00 in0.0 mm
06:55 AM 64.9°F18.3°C 55.3°F12.9°C 71% 9.0 mph WNW14.5 kmh WNW 18.0 mph29.0 kmh 29.66 in1004.4 mb 0.00 in0.0 mm 0.00 in0.0 mm 0.00 in0.0 mm
06:50 AM 64.4°F18.0°C 55.2°F12.9°C 72% 4.0 mph WSW6.4 kmh WSW 9.0 mph14.5 kmh 29.66 in1004.4 mb 0.00 in0.0 mm 0.00 in0.0 mm 0.00 in0.0 mm
06:45 AM 64.1°F17.8°C 55.3°F12.9°C 73% 10.0 mph W16.1 kmh W 14.0 mph22.5 kmh 29.66 in1004.4 mb 0.00 in0.0 mm 0.00 in0.0 mm 0.00 in0.0 mm
06:40 AM 63.8°F17.7°C 55.0°F12.8°C 73% 12.0 mph WSW19.3 kmh WSW 12.0 mph19.3 kmh 29.66 in1004.4 mb 0.00 in0.0 mm 0.00 in0.0 mm 0.00 in0.0 mm
06:35 AM 63.5°F17.5°C 55.1°F12.8°C 74% 9.0 mph WNW14.5 kmh WNW 17.0 mph27.4 kmh 29.65 in1004.1 mb 0.00 in0.0 mm 0.00 in0.0 mm 0.00 in0.0 mm
06:30 AM 63.2°F17.3°C 55.2°F12.9°C 75% 9.0 mph WNW14.5 kmh WNW 10.0 mph16.1 kmh 29.65 in1004.1 mb 0.00 in0.0 mm 0.00 in0.0 mm 0.00 in0.0 mm
06:25 AM 62.9°F17.2°C 55.2°F12.9°C 76% 9.0 mph W14.5 kmh W 22.0 mph35.4 kmh 29.65 in1004.1 mb 0.00 in0.0 mm 0.00 in0.0 mm 0.00 in0.0 mm
06:20 AM 62.4°F16.9°C 55.1°F12.8°C 77% 13.0 mph WSW20.9 kmh WSW 16.0 mph25.7 kmh 29.65 in1004.1 mb 0.00 in0.0 mm 0.00 in0.0 mm 0.00 in0.0 mm
06:15 AM 62.0°F16.7°C 55.1°F12.8°C 78% 12.0 mph W19.3 kmh W 22.0 mph35.4 kmh 29.65 in1004.1 mb 0.00 in0.0 mm 0.00 in0.0 mm 0.00 in0.0 mm
06:10 AM 61.9°F16.6°C 55.3°F12.9°C 79% 8.0 mph WSW12.9 kmh WSW 14.0 mph22.5 kmh 29.65 in1004.1 mb 0.00 in0.0 mm 0.00 in0.0 mm 0.00 in0.0 mm
06:05 AM 62.0°F16.7°C 55.1°F12.8°C 78% 7.0 mph W11.3 kmh W 20.0 mph32.2 kmh 29.65 in1004.1 mb 0.00 in0.0 mm 0.00 in0.0 mm 0.00 in0.0 mm
06:00 AM 62.0°F16.7°C 55.1°F12.8°C 78% 12.0 mph WSW19.3 kmh WSW 20.0 mph32.2 kmh 29.65 in1004.1 mb 0.00 in0.0 mm 0.00 in0.0 mm 0.00 in0.0 mm
05:55 AM 62.1°F16.7°C 55.2°F12.9°C 78% 8.0 mph WSW12.9 kmh WSW 16.0 mph25.7 kmh 29.64 in1003.7 mb 0.00 in0.0 mm 0.00 in0.0 mm 0.00 in0.0 mm
05:50 AM 62.0°F16.7°C 55.1°F12.8°C 78% 16.0 mph WSW25.7 kmh WSW 16.0 mph25.7 kmh 29.64 in1003.7 mb 0.00 in0.0 mm 0.00 in0.0 mm 0.00 in0.0 mm
05:45 AM 62.0°F16.7°C 55.4°F13.0°C 79% 5.0 mph W8.0 kmh W 19.0 mph30.6 kmh 29.63 in1003.4 mb 0.00 in0.0 mm 0.00 in0.0 mm 0.00 in0.0 mm
05:40 AM 61.9°F16.6°C 55.3°F12.9°C 79% 8.0 mph W12.9 kmh W 12.0 mph19.3 kmh 29.63 in1003.4 mb 0.00 in0.0 mm 0.00 in0.0 mm 0.00 in0.0 mm
05:35 AM 61.9°F16.6°C 55.3°F12.9°C 79% 6.0 mph WNW9.7 kmh WNW 16.0 mph25.7 kmh 29.63 in1003.4 mb 0.00 in0.0 mm 0.00 in0.0 mm 0.00 in0.0 mm
05:30 AM 61.9°F16.6°C 55.3°F12.9°C 79% 7.0 mph NW11.3 kmh NW 12.0 mph19.3 kmh 29.63 in1003.4 mb 0.00 in0.0 mm 0.00 in0.0 mm 0.00 in0.0 mm
05:25 AM 61.9°F16.6°C 55.3°F12.9°C 79% 7.0 mph W11.3 kmh W 17.0 mph27.4 kmh 29.63 in1003.4 mb 0.00 in0.0 mm 0.00 in0.0 mm 0.00 in0.0 mm
05:20 AM 62.0°F16.7°C 55.4°F13.0°C 79% 7.0 mph NW11.3 kmh NW 16.0 mph25.7 kmh 29.63 in1003.4 mb 0.00 in0.0 mm 0.00 in0.0 mm 0.00 in0.0 mm
05:15 AM 62.2°F16.8°C 55.3°F12.9°C 78% 10.0 mph NW16.1 kmh NW 16.0 mph25.7 kmh 29.62 in1003.0 mb 0.00 in0.0 mm 0.00 in0.0 mm 0.00 in0.0 mm
05:10 AM 62.4°F16.9°C 55.1°F12.8°C 77% 8.0 mph WNW12.9 kmh WNW 16.0 mph25.7 kmh 29.62 in1003.0 mb 0.00 in0.0 mm 0.00 in0.0 mm 0.00 in0.0 mm
05:05 AM 62.7°F17.1°C 54.7°F12.6°C 75% 8.0 mph NW12.9 kmh NW 14.0 mph22.5 kmh 29.62 in1003.0 mb 0.00 in0.0 mm 0.00 in0.0 mm 0.00 in0.0 mm
05:00 AM 63.2°F17.3°C 54.4°F12.4°C 73% 8.0 mph WNW12.9 kmh WNW 13.0 mph20.9 kmh 29.62 in1003.0 mb 0.00 in0.0 mm 0.00 in0.0 mm 0.00 in0.0 mm
04:55 AM 63.9°F17.7°C 53.5°F11.9°C 69% 8.0 mph W12.9 kmh W 14.0 mph22.5 kmh 29.62 in1003.0 mb 0.00 in0.0 mm 0.00 in0.0 mm 0.00 in0.0 mm
04:50 AM 64.7°F18.2°C 53.1°F11.7°C 66% 7.0 mph W11.3 kmh W 10.0 mph16.1 kmh 29.62 in1003.0 mb 0.00 in0.0 mm 0.00 in0.0 mm 0.00 in0.0 mm
04:45 AM 65.5°F18.6°C 52.2°F11.2°C 62% 6.0 mph WSW9.7 kmh WSW 14.0 mph22.5 kmh 29.62 in1003.0 mb 0.00 in0.0 mm 0.00 in0.0 mm 0.00 in0.0 mm
04:40 AM 66.0°F18.9°C 51.3°F10.7°C 59% 8.0 mph SW12.9 kmh SW 11.0 mph17.7 kmh 29.62 in1003.0 mb 0.00 in0.0 mm 0.00 in0.0 mm 0.00 in0.0 mm
04:35 AM 66.4°F19.1°C 50.2°F10.1°C 56% 4.0 mph W6.4 kmh W 14.0 mph22.5 kmh 29.62 in1003.0 mb 0.00 in0.0 mm 0.00 in0.0 mm 0.00 in0.0 mm
04:30 AM 66.6°F19.2°C 49.5°F9.7°C 54% 12.0 mph WSW19.3 kmh WSW 14.0 mph22.5 kmh 29.62 in1003.0 mb 0.00 in0.0 mm 0.00 in0.0 mm 0.00 in0.0 mm
04:25 AM 66.6°F19.2°C 49.5°F9.7°C 54% 6.0 mph WSW9.7 kmh WSW 9.0 mph14.5 kmh 29.62 in1003.0 mb 0.00 in0.0 mm 0.00 in0.0 mm 0.00 in0.0 mm
04:20 AM 66.7°F19.3°C 49.6°F9.8°C 54% 2.0 mph WSW3.2 kmh WSW 6.0 mph9.7 kmh 29.62 in1003.0 mb 0.00 in0.0 mm 0.00 in0.0 mm 0.00 in0.0 mm
04:15 AM 66.8°F19.3°C 50.1°F10.1°C 55% 4.0 mph W6.4 kmh W 10.0 mph16.1 kmh 29.62 in1003.0 mb 0.00 in0.0 mm 0.00 in0.0 mm 0.00 in0.0 mm
04:10 AM 67.0°F19.4°C 50.3°F10.2°C 55% 8.0 mph WNW12.9 kmh WNW 8.0 mph12.9 kmh 29.62 in1003.0 mb 0.00 in0.0 mm 0.00 in0.0 mm 0.00 in0.0 mm
04:05 AM 67.1°F19.5°C 50.9°F10.5°C 56% 2.0 mph W3.2 kmh W 9.0 mph14.5 kmh 29.62 in1003.0 mb 0.00 in0.0 mm 0.00 in0.0 mm 0.00 in0.0 mm
04:00 AM 67.2°F19.6°C 51.0°F10.6°C 56% 4.0 mph WNW6.4 kmh WNW 8.0 mph12.9 kmh 29.62 in1003.0 mb 0.00 in0.0 mm 0.00 in0.0 mm 0.00 in0.0 mm
03:55 AM 67.4°F19.7°C 51.2°F10.7°C 56% 4.0 mph W6.4 kmh W 8.0 mph12.9 kmh 29.62 in1003.0 mb 0.00 in0.0 mm 0.00 in0.0 mm 0.00 in0.0 mm
03:50 AM 67.5°F19.7°C 51.3°F10.7°C 56% 4.0 mph W6.4 kmh W 7.0 mph11.3 kmh 29.62 in1003.0 mb 0.00 in0.0 mm 0.00 in0.0 mm 0.00 in0.0 mm
03:45 AM 67.7°F19.8°C 51.0°F10.6°C 55% 6.0 mph W9.7 kmh W 9.0 mph14.5 kmh 29.62 in1003.0 mb 0.00 in0.0 mm 0.00 in0.0 mm 0.00 in0.0 mm
03:40 AM 68.0°F20.0°C 51.3°F10.7°C 55% 4.0 mph WSW6.4 kmh WSW 8.0 mph12.9 kmh 29.62 in1003.0 mb 0.00 in0.0 mm 0.00 in0.0 mm 0.00 in0.0 mm
03:35 AM 68.3°F20.2°C 51.5°F10.8°C 55% 4.0 mph WSW6.4 kmh WSW 10.0 mph16.1 kmh 29.62 in1003.0 mb 0.00 in0.0 mm 0.00 in0.0 mm 0.00 in0.0 mm
03:30 AM 68.4°F20.2°C 51.6°F10.9°C 55% 4.0 mph WNW6.4 kmh WNW 6.0 mph9.7 kmh 29.61 in1002.7 mb 0.00 in0.0 mm 0.00 in0.0 mm 0.00 in0.0 mm
03:25 AM 68.6°F20.3°C 51.8°F11.0°C 55% 6.0 mph W9.7 kmh W 12.0 mph19.3 kmh 29.61 in1002.7 mb 0.00 in0.0 mm 0.00 in0.0 mm 0.00 in0.0 mm
03:20 AM 68.7°F20.4°C 52.4°F11.3°C 56% 6.0 mph W9.7 kmh W 6.0 mph9.7 kmh 29.62 in1003.0 mb 0.00 in0.0 mm 0.00 in0.0 mm 0.00 in0.0 mm
03:15 AM 68.9°F20.5°C 52.6°F11.4°C 56% 4.0 mph NW6.4 kmh NW 10.0 mph16.1 kmh 29.62 in1003.0 mb 0.00 in0.0 mm 0.00 in0.0 mm 0.00 in0.0 mm
03:10 AM 69.1°F20.6°C 52.8°F11.6°C 56% 6.0 mph WNW9.7 kmh WNW 6.0 mph9.7 kmh 29.62 in1003.0 mb 0.00 in0.0 mm 0.00 in0.0 mm 0.00 in0.0 mm
03:05 AM 69.2°F20.7°C 52.9°F11.6°C 56% 4.0 mph W6.4 kmh W 10.0 mph16.1 kmh 29.62 in1003.0 mb 0.00 in0.0 mm 0.00 in0.0 mm 0.00 in0.0 mm
03:00 AM 69.2°F20.7°C 52.9°F11.6°C 56% 5.0 mph W8.0 kmh W 8.0 mph12.9 kmh 29.62 in1003.0 mb 0.00 in0.0 mm 0.00 in0.0 mm 0.00 in0.0 mm
02:55 AM 69.3°F20.7°C 53.0°F11.7°C 56% 4.0 mph W6.4 kmh W 12.0 mph19.3 kmh 29.62 in1003.0 mb 0.00 in0.0 mm 0.00 in0.0 mm 0.00 in0.0 mm
02:50 AM 69.3°F20.7°C 53.0°F11.7°C 56% 10.0 mph WSW16.1 kmh WSW 12.0 mph19.3 kmh 29.62 in1003.0 mb 0.00 in0.0 mm 0.00 in0.0 mm 0.00 in0.0 mm
02:45 AM 69.3°F20.7°C 53.4°F11.9°C 57% 2.0 mph W3.2 kmh W 10.0 mph16.1 kmh 29.62 in1003.0 mb 0.00 in0.0 mm 0.00 in0.0 mm 0.00 in0.0 mm
02:40 AM 69.3°F20.7°C 53.4°F11.9°C 57% 1.0 mph WSW1.6 kmh WSW 4.0 mph6.4 kmh 29.62 in1003.0 mb 0.00 in0.0 mm 0.00 in0.0 mm 0.00 in0.0 mm
02:35 AM 69.5°F20.8°C 53.1°F11.7°C 56% 4.0 mph WSW6.4 kmh WSW 7.0 mph11.3 kmh 29.62 in1003.0 mb 0.00 in0.0 mm 0.00 in0.0 mm 0.00 in0.0 mm
02:30 AM 69.8°F21.0°C 53.4°F11.9°C 56% Calm Calm 1.0 mph1.6 kmh 29.62 in1003.0 mb 0.00 in0.0 mm 0.00 in0.0 mm 0.00 in0.0 mm
02:25 AM 70.0°F21.1°C 53.6°F12.0°C 56% 4.0 mph WSW6.4 kmh WSW 4.0 mph6.4 kmh 29.62 in1003.0 mb 0.00 in0.0 mm 0.00 in0.0 mm 0.00 in0.0 mm
02:20 AM 70.2°F21.2°C 53.3°F11.8°C 55% Calm Calm -- 29.63 in1003.4 mb 0.00 in0.0 mm 0.00 in0.0 mm 0.00 in0.0 mm
02:15 AM 70.4°F21.3°C 53.5°F11.9°C 55% Calm Calm 4.0 mph6.4 kmh 29.63 in1003.4 mb 0.00 in0.0 mm 0.00 in0.0 mm 0.00 in0.0 mm
02:10 AM 70.6°F21.4°C 53.7°F12.1°C 55% Calm Calm 1.0 mph1.6 kmh 29.63 in1003.4 mb 0.00 in0.0 mm 0.00 in0.0 mm 0.00 in0.0 mm
02:05 AM 70.8°F21.6°C 53.9°F12.2°C 55% 4.0 mph SW6.4 kmh SW 6.0 mph9.7 kmh 29.63 in1003.4 mb 0.00 in0.0 mm 0.00 in0.0 mm 0.00 in0.0 mm
02:00 AM 71.0°F21.7°C 53.5°F11.9°C 54% Calm Calm 1.0 mph1.6 kmh 29.63 in1003.4 mb 0.00 in0.0 mm 0.00 in0.0 mm 0.00 in0.0 mm
01:55 AM 71.0°F21.7°C 53.5°F11.9°C 54% Calm Calm 3.0 mph4.8 kmh 29.63 in1003.4 mb 0.00 in0.0 mm 0.00 in0.0 mm 0.00 in0.0 mm
01:50 AM 71.1°F21.7°C 53.6°F12.0°C 54% Calm Calm 3.0 mph4.8 kmh 29.63 in1003.4 mb 0.00 in0.0 mm 0.00 in0.0 mm 0.00 in0.0 mm
01:45 AM 71.5°F21.9°C 53.5°F11.9°C 53% 2.0 mph SW3.2 kmh SW 11.0 mph17.7 kmh 29.63 in1003.4 mb 0.00 in0.0 mm 0.00 in0.0 mm 0.00 in0.0 mm
01:40 AM 71.8°F22.1°C 53.3°F11.8°C 52% 6.0 mph WSW9.7 kmh WSW 6.0 mph9.7 kmh 29.62 in1003.0 mb 0.00 in0.0 mm 0.00 in0.0 mm 0.00 in0.0 mm
01:35 AM 71.9°F22.2°C 53.3°F11.8°C 52% 9.0 mph WSW14.5 kmh WSW 14.0 mph22.5 kmh 29.62 in1003.0 mb 0.00 in0.0 mm 0.00 in0.0 mm 0.00 in0.0 mm
01:30 AM 72.0°F22.2°C 53.4°F11.9°C 52% 4.0 mph SW6.4 kmh SW 6.0 mph9.7 kmh 29.63 in1003.4 mb 0.00 in0.0 mm 0.00 in0.0 mm 0.00 in0.0 mm
01:25 AM 72.0°F22.2°C 53.4°F11.9°C 52% 5.0 mph SW8.0 kmh SW 12.0 mph19.3 kmh 29.63 in1003.4 mb 0.00 in0.0 mm 0.00 in0.0 mm 0.00 in0.0 mm
01:20 AM 72.0°F22.2°C 54.0°F12.2°C 53% 5.0 mph S8.0 kmh S 8.0 mph12.9 kmh 29.63 in1003.4 mb 0.00 in0.0 mm 0.00 in0.0 mm 0.00 in0.0 mm
01:15 AM 72.0°F22.2°C 54.5°F12.5°C 54% 9.0 mph SW14.5 kmh SW 15.0 mph24.1 kmh 29.64 in1003.7 mb 0.00 in0.0 mm 0.00 in0.0 mm 0.00 in0.0 mm
01:10 AM 71.8°F22.1°C 54.3°F12.4°C 54% 7.0 mph SSW11.3 kmh SSW 15.0 mph24.1 kmh 29.64 in1003.7 mb 0.00 in0.0 mm 0.00 in0.0 mm 0.00 in0.0 mm
01:05 AM 71.5°F21.9°C 54.5°F12.5°C 55% 6.0 mph WSW9.7 kmh WSW 13.0 mph20.9 kmh 29.64 in1003.7 mb 0.00 in0.0 mm 0.00 in0.0 mm 0.00 in0.0 mm
01:00 AM 71.3°F21.8°C 54.3°F12.4°C 55% 7.0 mph SW11.3 kmh SW 7.0 mph11.3 kmh 29.65 in1004.1 mb 0.00 in0.0 mm 0.00 in0.0 mm 0.00 in0.0 mm
12:55 AM 71.3°F21.8°C 54.8°F12.7°C 56% 4.0 mph SSW6.4 kmh SSW 6.0 mph9.7 kmh 29.64 in1003.7 mb 0.00 in0.0 mm 0.00 in0.0 mm 0.00 in0.0 mm
12:50 AM 71.4°F21.9°C 54.9°F12.7°C 56% 1.0 mph SSW1.6 kmh SSW 3.0 mph4.8 kmh 29.64 in1003.7 mb 0.00 in0.0 mm 0.00 in0.0 mm 0.00 in0.0 mm
12:45 AM 71.3°F21.8°C 55.3°F12.9°C 57% 6.0 mph SSW9.7 kmh SSW 7.0 mph11.3 kmh 29.65 in1004.1 mb 0.00 in0.0 mm 0.00 in0.0 mm 0.00 in0.0 mm
12:40 AM 71.2°F21.8°C 55.7°F13.2°C 58% 3.0 mph S4.8 kmh S 4.0 mph6.4 kmh 29.65 in1004.1 mb 0.00 in0.0 mm 0.00 in0.0 mm 0.00 in0.0 mm
12:35 AM 70.9°F21.6°C 55.4°F13.0°C 58% Calm Calm 10.0 mph16.1 kmh 29.65 in1004.1 mb 0.00 in0.0 mm 0.00 in0.0 mm 0.00 in0.0 mm
12:30 AM 70.4°F21.3°C 55.9°F13.3°C 60% 6.0 mph S9.7 kmh S 8.0 mph12.9 kmh 29.65 in1004.1 mb 0.00 in0.0 mm 0.00 in0.0 mm 0.00 in0.0 mm
12:25 AM 70.6°F21.4°C 57.0°F13.9°C 62% 2.0 mph S3.2 kmh S 2.0 mph3.2 kmh 29.65 in1004.1 mb 0.00 in0.0 mm 0.00 in0.0 mm 0.00 in0.0 mm
12:20 AM 70.6°F21.4°C 57.0°F13.9°C 62% Calm Calm -- 29.65 in1004.1 mb 0.00 in0.0 mm 0.00 in0.0 mm 0.00 in0.0 mm
12:15 AM 70.5°F21.4°C 56.9°F13.8°C 62% Calm Calm 4.0 mph6.4 kmh 29.65 in1004.1 mb 0.00 in0.0 mm 0.00 in0.0 mm 0.00 in0.0 mm
12:10 AM 70.4°F21.3°C 57.2°F14.0°C 63% 2.0 mph S3.2 kmh S 2.0 mph3.2 kmh 29.65 in1004.1 mb 0.00 in0.0 mm 0.00 in0.0 mm 0.00 in0.0 mm
12:05 AM 70.5°F21.4°C 57.8°F14.3°C 64% 4.0 mph S6.4 kmh S 8.0 mph12.9 kmh 29.65 in1004.1 mb 0.00 in0.0 mm 0.00 in0.0 mm 0.00 in0.0 mm
12:00 AM 71.2°F21.8°C 57.5°F14.2°C 62% 8.0 mph S12.9 kmh S 8.0 mph12.9 kmh 29.65 in1004.1 mb 0.00 in0.0 mm 0.00 in0.0 mm 0.00 in0.0 mm